createdAt,value
2023-02-05T00:00:20.762Z,0.35
2023-02-05T00:03:09.149Z,0.00
2023-02-05T00:05:37.733Z,-0.11
2023-02-05T00:08:06.526Z,-0.08
2023-02-05T00:10:35.461Z,-0.01
2023-02-05T00:13:03.722Z,-0.17
2023-02-05T00:15:34.173Z,0.17
2023-02-05T00:18:02.501Z,-0.16
2023-02-05T00:20:31.036Z,-0.21
2023-02-05T00:22:59.459Z,-0.09
2023-02-05T00:25:29.049Z,-0.17
2023-02-05T00:27:57.396Z,-0.14
2023-02-05T00:30:25.925Z,-0.11
2023-02-05T00:32:55.865Z,0.20
2023-02-05T00:35:24.669Z,-0.11
2023-02-05T00:37:52.838Z,-0.04
2023-02-05T00:40:21.411Z,-0.08
2023-02-05T00:42:49.777Z,-0.01
2023-02-05T00:45:18.489Z,-0.08
2023-02-05T00:47:46.904Z,0.03
2023-02-05T00:50:18.487Z,0.27
2023-02-05T00:52:46.866Z,0.05
2023-02-05T00:55:15.597Z,0.05
2023-02-05T00:57:43.931Z,0.18
2023-02-05T01:00:13.612Z,0.26
2023-02-05T01:02:41.927Z,0.30
2023-02-05T01:05:11.086Z,0.29
2023-02-05T01:07:49.869Z,0.51
2023-02-05T01:10:18.442Z,0.12
2023-02-05T01:12:46.770Z,0.07
2023-02-05T01:15:15.498Z,-0.01
2023-02-05T01:17:43.725Z,-0.04
2023-02-05T01:20:14.537Z,0.26
2023-02-05T01:22:43.413Z,0.09
2023-02-05T01:25:13.532Z,0.38
2023-02-05T01:27:41.733Z,0.02
2023-02-05T01:30:12.617Z,0.29
2023-02-05T01:32:41.739Z,0.19
2023-02-05T01:35:10.872Z,0.24
2023-02-05T01:37:39.269Z,0.17
2023-02-05T01:40:08.417Z,0.16
2023-02-05T01:42:37.990Z,0.40
2023-02-05T01:45:43.370Z,0.72
2023-02-05T01:48:11.658Z,0.16
2023-02-05T01:50:43.843Z,0.46
2023-02-05T01:53:15.149Z,0.39
2023-02-05T01:55:46.936Z,0.36
2023-02-05T01:58:16.858Z,0.32
2023-02-05T02:00:45.528Z,0.07
2023-02-05T02:03:15.560Z,0.34
2023-02-05T02:05:44.175Z,0.09
2023-02-05T02:08:13.704Z,0.29
2023-02-05T02:10:44.313Z,0.34
2023-02-05T02:13:12.974Z,0.14
2023-02-05T02:15:43.037Z,0.38
2023-02-05T02:18:29.988Z,0.08
2023-02-05T02:21:42.937Z,0.49
2023-02-05T02:24:27.438Z,0.09
2023-02-05T02:27:04.427Z,0.17
2023-02-05T02:29:38.165Z,0.08
2023-02-05T02:32:12.575Z,-0.08
2023-02-05T02:34:43.945Z,-0.30
2023-02-05T02:37:16.364Z,-0.31
2023-02-05T02:39:51.541Z,-0.37
2023-02-05T02:42:24.772Z,-0.49
2023-02-05T02:44:58.527Z,-0.65
2023-02-05T02:47:29.916Z,-0.88
2023-02-05T02:50:02.305Z,-0.94
2023-02-05T02:52:35.012Z,-1.02
2023-02-05T02:55:08.382Z,-1.09
2023-02-05T02:57:39.405Z,-0.99
2023-02-05T03:00:13.877Z,-0.80
2023-02-05T03:02:42.776Z,-1.04
2023-02-05T03:05:14.546Z,-0.65
2023-02-05T03:07:45.333Z,-0.64
2023-02-05T03:10:16.190Z,-0.57
2023-02-05T03:12:44.956Z,-0.95
2023-02-05T03:15:14.999Z,-0.65
2023-02-05T03:17:44.101Z,-0.77
2023-02-05T03:20:17.637Z,-0.58
2023-02-05T03:22:46.126Z,-0.87
2023-02-05T03:25:14.624Z,-0.82
2023-02-05T03:27:43.404Z,-0.73
2023-02-05T03:30:12.953Z,-0.53
2023-02-05T03:32:55.705Z,-0.36
2023-02-05T03:35:32.276Z,-0.59
2023-02-05T03:38:09.138Z,-0.82
2023-02-05T03:40:42.797Z,-1.11
2023-02-05T03:43:15.238Z,-1.22
2023-02-05T03:45:52.563Z,-1.23
2023-02-05T03:48:41.498Z,-1.21
2023-02-05T03:51:22.704Z,-1.39
2023-02-05T03:54:00.601Z,-1.52
2023-02-05T03:56:33.073Z,-1.72
2023-02-05T03:59:03.212Z,-1.87
2023-02-05T04:01:31.865Z,-2.04
2023-02-05T04:04:02.775Z,-1.97
2023-02-05T04:06:31.114Z,-2.29
2023-02-05T04:08:59.756Z,-2.24
2023-02-05T04:11:28.167Z,-2.23
2023-02-05T04:13:56.734Z,-2.37
2023-02-05T04:16:25.349Z,-2.29
2023-02-05T04:18:53.807Z,-2.47
2023-02-05T04:21:23.390Z,-2.22
2023-02-05T04:23:52.143Z,-2.43
2023-02-05T04:26:20.518Z,-2.60
2023-02-05T04:28:49.022Z,-2.64
2023-02-05T04:31:17.354Z,-2.68
2023-02-05T04:33:46.006Z,-2.64
2023-02-05T04:36:15.695Z,-2.66
2023-02-05T04:38:45.504Z,-2.43
2023-02-05T04:41:13.924Z,-2.68
2023-02-05T04:43:42.532Z,-2.73
2023-02-05T04:46:11.328Z,-2.61
2023-02-05T04:48:40.614Z,-2.61
2023-02-05T04:51:10.313Z,-2.45
2023-02-05T04:53:39.584Z,-2.63
2023-02-05T04:56:11.596Z,-2.30
2023-02-05T04:58:40.704Z,-2.55
2023-02-05T05:01:15.684Z,-2.32
2023-02-05T05:03:44.999Z,-2.48
2023-02-05T05:06:14.161Z,-2.45
2023-02-05T05:08:43.133Z,-2.40
2023-02-05T05:11:14.699Z,-2.15
2023-02-05T05:13:44.436Z,-2.42
2023-02-05T05:16:13.968Z,-2.39
2023-02-05T05:18:42.842Z,-2.58
2023-02-05T05:21:11.282Z,-2.58
2023-02-05T05:23:40.315Z,-2.60
2023-02-05T05:26:09.693Z,-2.72
2023-02-05T05:28:39.983Z,-2.53
2023-02-05T05:31:09.822Z,-2.62
2023-02-05T05:33:38.929Z,-2.74
2023-02-05T05:36:08.732Z,-2.72
2023-02-05T05:38:37.566Z,-3.02
2023-02-05T05:41:24.131Z,-2.89
2023-02-05T05:43:55.433Z,-2.71
2023-02-05T05:46:26.009Z,-2.80
2023-02-05T05:48:55.852Z,-2.87
2023-02-05T05:51:25.645Z,-2.93
2023-02-05T05:53:54.301Z,-3.22
2023-02-05T05:56:22.931Z,-3.10
2023-02-05T05:58:53.303Z,-3.09
2023-02-05T06:01:23.063Z,-3.08
2023-02-05T06:03:52.237Z,-3.05
2023-02-05T06:06:20.544Z,-3.18
2023-02-05T06:08:49.209Z,-3.21
2023-02-05T06:11:17.650Z,-3.17
2023-02-05T06:13:46.633Z,-3.11
2023-02-05T06:16:16.727Z,-2.80
2023-02-05T06:18:45.248Z,-3.09
2023-02-05T06:21:13.716Z,-3.12
2023-02-05T06:23:42.333Z,-2.98
2023-02-05T06:26:10.547Z,-3.02
2023-02-05T06:28:39.203Z,-2.97
2023-02-05T06:31:07.649Z,-2.97
2023-02-05T06:33:37.779Z,-2.46
2023-02-05T06:36:07.279Z,-2.36
2023-02-05T06:38:35.924Z,-2.35
2023-02-05T06:41:04.811Z,-2.15
2023-02-05T06:43:33.386Z,-2.15
2023-02-05T06:46:01.877Z,-2.02
2023-02-05T06:48:30.860Z,-2.03
2023-02-05T06:51:00.509Z,-1.68
2023-02-05T06:53:29.234Z,-1.96
2023-02-05T06:55:59.392Z,-1.52
2023-02-05T06:58:28.286Z,-1.37
2023-02-05T07:00:56.556Z,-0.70
2023-02-05T07:03:25.953Z,0.54
2023-02-05T07:05:54.181Z,1.14
2023-02-05T07:08:24.171Z,2.23
2023-02-05T07:10:52.485Z,2.49
2023-02-05T07:13:21.011Z,3.02
2023-02-05T07:15:49.912Z,3.25
2023-02-05T07:18:18.501Z,2.79
2023-02-05T07:20:46.834Z,2.11
2023-02-05T07:23:15.659Z,1.71
2023-02-05T07:25:46.626Z,2.42
2023-02-05T07:28:15.170Z,3.85
2023-02-05T07:30:43.828Z,4.06
2023-02-05T07:33:12.421Z,4.83
2023-02-05T07:35:40.741Z,5.32
2023-02-05T07:38:10.952Z,5.38
2023-02-05T07:40:39.477Z,5.23
2023-02-05T07:43:09.423Z,5.12
2023-02-05T07:45:37.798Z,4.91
2023-02-05T07:48:06.878Z,6.17
2023-02-05T07:50:35.964Z,6.52
2023-02-05T07:53:04.621Z,6.21
2023-02-05T07:55:33.149Z,6.47
2023-02-05T07:58:02.178Z,7.80
2023-02-05T08:00:32.394Z,9.67
2023-02-05T08:03:01.140Z,10.67
2023-02-05T08:05:30.373Z,11.74
2023-02-05T08:07:59.190Z,12.52
2023-02-05T08:10:27.692Z,11.75
2023-02-05T08:12:56.326Z,11.84
2023-02-05T08:15:24.900Z,11.61
2023-02-05T08:17:54.948Z,12.51
2023-02-05T08:20:23.412Z,12.45
2023-02-05T08:22:52.125Z,11.93
2023-02-05T08:25:20.760Z,10.88
2023-02-05T08:27:49.508Z,9.40
2023-02-05T08:30:21.729Z,8.13
2023-02-05T08:32:51.271Z,7.05
2023-02-05T08:35:20.911Z,6.20
2023-02-05T08:37:49.498Z,5.11
2023-02-05T08:40:18.228Z,4.76
2023-02-05T08:42:48.663Z,4.54
2023-02-05T08:45:17.462Z,4.24
2023-02-05T08:47:46.193Z,3.76
2023-02-05T08:50:15.789Z,3.59
2023-02-05T08:52:46.156Z,3.22
2023-02-05T08:55:15.473Z,2.77
2023-02-05T08:57:44.211Z,2.59
2023-02-05T09:00:13.845Z,2.50
2023-02-05T09:02:43.138Z,2.47
2023-02-05T09:05:12.027Z,2.28
2023-02-05T09:07:41.607Z,2.41
2023-02-05T09:10:12.582Z,1.50
2023-02-05T09:12:41.134Z,2.23
2023-02-05T09:15:10.677Z,2.05
2023-02-05T09:17:39.250Z,1.99
2023-02-05T09:20:08.526Z,2.20
2023-02-05T09:22:38.734Z,2.32
2023-02-05T09:25:07.809Z,2.29
2023-02-05T09:27:37.715Z,2.47
2023-02-05T09:30:06.494Z,2.22
2023-02-05T09:32:35.397Z,2.03
2023-02-05T09:35:03.874Z,1.82
2023-02-05T09:37:32.526Z,1.70
2023-02-05T09:42:59.232Z,1.86
2023-02-05T09:45:38.835Z,1.95
2023-02-05T09:48:28.467Z,1.99
2023-02-05T09:50:58.261Z,1.57
2023-02-05T09:53:30.005Z,1.51
2023-02-05T09:55:59.716Z,1.42
2023-02-05T09:58:32.241Z,1.45
2023-02-05T10:01:03.403Z,1.41
2023-02-05T10:03:37.473Z,1.47
2023-02-05T10:06:14.754Z,1.56
2023-02-05T10:08:52.016Z,1.52
2023-02-05T10:11:24.823Z,1.46
2023-02-05T10:14:03.102Z,1.48
2023-02-05T10:17:12.170Z,1.57
2023-02-05T10:19:50.499Z,1.41
2023-02-05T10:22:24.781Z,1.43
2023-02-05T10:25:26.029Z,1.67
2023-02-05T10:27:59.414Z,1.98
2023-02-05T10:30:32.016Z,2.35
2023-02-05T10:33:02.335Z,2.42
2023-02-05T10:35:37.335Z,2.19
2023-02-05T10:38:11.839Z,1.85
2023-02-05T10:40:44.148Z,1.45
2023-02-05T10:43:20.500Z,1.46
2023-02-05T10:45:50.556Z,1.73
2023-02-05T10:48:36.478Z,2.32
2023-02-05T10:51:07.244Z,3.02
2023-02-05T10:53:36.892Z,4.35
2023-02-05T10:56:06.377Z,5.75
2023-02-05T10:58:40.208Z,7.03
2023-02-05T11:01:15.200Z,7.29
2023-02-05T11:03:49.702Z,6.69
2023-02-05T11:06:19.231Z,5.62
2023-02-05T11:08:47.560Z,4.33
2023-02-05T11:11:24.812Z,4.10
2023-02-05T11:13:55.821Z,3.55
2023-02-05T11:16:25.628Z,3.65
2023-02-05T11:18:58.977Z,3.13
2023-02-05T11:21:48.298Z,3.02
2023-02-05T11:24:25.712Z,2.88
2023-02-05T11:27:29.434Z,3.03
2023-02-05T11:30:00.877Z,2.58
2023-02-05T11:32:40.221Z,2.75
2023-02-05T11:35:23.247Z,2.60
2023-02-05T11:38:01.573Z,2.25
2023-02-05T11:40:32.572Z,1.85
2023-02-05T11:43:05.489Z,2.19
2023-02-05T11:45:35.701Z,1.70
2023-02-05T11:48:07.995Z,1.67
2023-02-05T11:50:36.743Z,1.39
2023-02-05T11:53:17.372Z,1.83
2023-02-05T11:55:46.036Z,1.67
2023-02-05T11:58:31.570Z,2.23
2023-02-05T12:01:06.867Z,1.95
2023-02-05T12:03:37.013Z,1.89
2023-02-05T12:06:17.136Z,1.94
2023-02-05T12:08:48.848Z,1.66
2023-02-05T12:12:04.306Z,1.54
2023-02-05T12:14:39.635Z,1.27
2023-02-05T12:17:19.264Z,1.01
2023-02-05T12:19:53.391Z,1.00
2023-02-05T12:22:30.306Z,1.05
2023-02-05T12:25:11.206Z,1.05
2023-02-05T12:27:51.290Z,1.02
2023-02-05T12:30:38.684Z,0.78
2023-02-05T12:33:40.242Z,0.92
2023-02-05T12:36:13.371Z,1.29
2023-02-05T12:38:50.680Z,1.07
2023-02-05T12:41:27.609Z,1.47
2023-02-05T12:44:00.626Z,1.91
2023-02-05T12:46:47.841Z,2.34
2023-02-05T12:49:36.051Z,2.48
2023-02-05T12:52:18.834Z,2.49
2023-02-05T12:54:58.212Z,2.42
2023-02-05T12:57:30.462Z,2.11
2023-02-05T13:00:02.440Z,1.93
2023-02-05T13:02:35.986Z,1.88
2023-02-05T13:05:16.455Z,1.98
2023-02-05T13:07:48.799Z,1.99
2023-02-05T13:10:20.170Z,1.89
2023-02-05T13:12:49.046Z,2.56
2023-02-05T13:15:20.553Z,2.16
2023-02-05T13:17:58.392Z,2.34
2023-02-05T13:20:43.619Z,2.33
2023-02-05T13:23:31.964Z,2.52
2023-02-05T13:26:18.796Z,2.49
2023-02-05T13:28:49.808Z,2.44
2023-02-05T13:31:23.078Z,2.57
2023-02-05T13:33:53.300Z,2.37
2023-02-05T13:36:43.929Z,2.73
2023-02-05T13:39:34.057Z,2.85
2023-02-05T13:42:16.870Z,2.95
2023-02-05T13:45:17.513Z,2.98
2023-02-05T13:48:08.290Z,2.40
2023-02-05T13:51:10.344Z,1.98
2023-02-05T13:53:48.452Z,1.23
2023-02-05T13:56:36.758Z,1.26
2023-02-05T13:59:06.816Z,0.81
2023-02-05T14:01:44.826Z,0.33
2023-02-05T14:04:21.645Z,1.00
2023-02-05T14:06:58.239Z,0.64
2023-02-05T14:09:32.403Z,0.37
2023-02-05T14:15:25.151Z,0.76
2023-02-05T14:17:55.964Z,0.70
2023-02-05T14:20:37.042Z,1.07
2023-02-05T14:23:06.363Z,1.48
2023-02-05T14:26:10.497Z,1.43
2023-02-05T14:28:48.919Z,1.05
2023-02-05T14:31:50.379Z,1.29
2023-02-05T14:37:32.626Z,1.13
2023-02-05T14:40:24.565Z,1.27
2023-02-05T14:43:08.441Z,1.20
2023-02-05T14:45:44.211Z,1.23
2023-02-05T14:48:21.216Z,1.27
2023-02-05T14:51:02.373Z,1.27
2023-02-05T14:53:33.060Z,1.14
2023-02-05T14:56:02.284Z,0.89
2023-02-05T14:58:33.143Z,1.02
2023-02-05T15:01:42.004Z,1.37
2023-02-05T15:04:30.540Z,1.19
2023-02-05T15:07:01.218Z,0.84
2023-02-05T15:09:40.573Z,0.95
2023-02-05T15:12:50.147Z,1.12
2023-02-05T15:15:31.060Z,1.07
2023-02-05T15:18:04.745Z,0.83
2023-02-05T15:20:36.424Z,0.59
2023-02-05T15:23:19.523Z,0.68
2023-02-05T15:25:55.092Z,0.60
2023-02-05T15:28:28.981Z,0.54
2023-02-05T15:31:18.822Z,0.64
2023-02-05T15:33:54.817Z,0.44
2023-02-05T15:36:31.634Z,0.44
2023-02-05T15:39:08.792Z,0.37
2023-02-05T15:41:38.995Z,0.19
2023-02-05T15:44:21.593Z,0.30
2023-02-05T15:46:50.748Z,-0.03
2023-02-05T15:49:19.450Z,-0.19
2023-02-05T15:51:49.010Z,-0.06
2023-02-05T15:54:21.289Z,0.08
2023-02-05T15:56:53.723Z,0.04
2023-02-05T15:59:25.284Z,-0.06
2023-02-05T16:02:01.550Z,0.19
2023-02-05T16:04:32.384Z,-0.11
2023-02-05T16:07:00.983Z,-0.30
2023-02-05T16:09:31.793Z,-0.04
2023-02-05T16:12:13.721Z,0.22
2023-02-05T16:14:43.879Z,-0.33
2023-02-05T16:17:16.703Z,0.00
2023-02-05T16:19:49.614Z,-0.02
2023-02-05T16:22:36.585Z,0.20
2023-02-05T16:25:09.217Z,-0.00
2023-02-05T16:27:42.351Z,-0.06
2023-02-05T16:30:19.005Z,-0.09
2023-02-05T16:32:47.802Z,-0.37
2023-02-05T16:35:24.593Z,-0.03
2023-02-05T16:37:53.198Z,-0.35
2023-02-05T16:40:32.025Z,-0.13
2023-02-05T16:43:01.835Z,-0.32
2023-02-05T16:45:31.538Z,-0.50
2023-02-05T16:48:23.546Z,0.05
2023-02-05T16:50:53.947Z,-0.38
2023-02-05T16:53:26.476Z,-0.29
2023-02-05T16:55:58.547Z,-0.34
2023-02-05T16:58:28.785Z,0.16
2023-02-05T17:00:59.700Z,-0.37
2023-02-05T17:03:30.717Z,-0.43
2023-02-05T17:06:02.108Z,-0.33
2023-02-05T17:08:33.280Z,-0.35
2023-02-05T17:11:04.697Z,-0.42
2023-02-05T17:13:38.776Z,-0.24
2023-02-05T17:16:28.584Z,-0.08
2023-02-05T17:19:00.593Z,-0.19
2023-02-05T17:21:33.801Z,-0.17
2023-02-05T17:24:04.890Z,-0.38
2023-02-05T17:26:35.974Z,-0.33
2023-02-05T17:29:07.634Z,-0.27
2023-02-05T17:31:38.510Z,-0.41
2023-02-05T17:34:07.642Z,-0.52
2023-02-05T17:36:36.238Z,-0.64
2023-02-05T17:39:05.076Z,-0.69
2023-02-05T17:41:54.447Z,-0.34
2023-02-05T17:44:24.315Z,-0.46
2023-02-05T17:46:54.288Z,-0.73
2023-02-05T17:49:23.063Z,-0.81
2023-02-05T17:51:51.744Z,-0.77
2023-02-05T17:54:23.070Z,-0.56
2023-02-05T17:56:51.926Z,-0.81
2023-02-05T17:59:21.745Z,-0.68
2023-02-05T18:01:51.978Z,-0.60
2023-02-05T18:04:20.689Z,-0.70
2023-02-05T18:06:50.048Z,-0.57
2023-02-05T18:09:20.122Z,-0.75
2023-02-05T18:11:48.797Z,-0.72
2023-02-05T18:14:17.147Z,-0.83
2023-02-05T18:16:45.981Z,-0.82
2023-02-05T18:19:15.966Z,-0.45
2023-02-05T18:21:47.132Z,-0.78
2023-02-05T18:24:15.517Z,-0.70
2023-02-05T18:26:44.144Z,-0.77
2023-02-05T18:29:12.505Z,-0.79
2023-02-05T18:31:41.021Z,-0.77
2023-02-05T18:34:09.438Z,-0.87
2023-02-05T18:36:39.373Z,-0.62
2023-02-05T18:39:09.864Z,-0.87
2023-02-05T18:41:39.189Z,-0.80
2023-02-05T18:44:07.456Z,-0.82
2023-02-05T18:46:36.066Z,-0.68
2023-02-05T18:49:04.440Z,-0.69
2023-02-05T18:51:33.006Z,-0.78
2023-02-05T18:54:02.963Z,-0.65
2023-02-05T18:56:31.602Z,-1.00
2023-02-05T18:59:01.120Z,-0.97
2023-02-05T19:01:30.744Z,-0.97
2023-02-05T19:04:02.280Z,-0.81
2023-02-05T19:06:31.407Z,-1.02
2023-02-05T19:09:00.624Z,-0.95
2023-02-05T19:11:32.296Z,-0.75
2023-02-05T19:14:02.918Z,-0.85
2023-02-05T19:16:33.703Z,-0.85
2023-02-05T19:19:02.389Z,-1.06
2023-02-05T19:21:32.083Z,-1.10
2023-02-05T19:24:05.531Z,-0.90
2023-02-05T19:26:37.287Z,-0.80
2023-02-05T19:29:07.978Z,-0.91
2023-02-05T19:31:37.944Z,-0.95
2023-02-05T19:34:06.696Z,-1.13
2023-02-05T19:36:35.411Z,-1.12
2023-02-05T19:39:05.848Z,-1.02
2023-02-05T19:41:36.967Z,-1.02
2023-02-05T19:44:07.558Z,-1.00
2023-02-05T19:46:38.594Z,-0.86
2023-02-05T19:49:11.757Z,-0.77
2023-02-05T19:51:40.446Z,-1.15
2023-02-05T19:54:08.744Z,-1.12
2023-02-05T19:56:39.732Z,-0.82
2023-02-05T19:59:08.506Z,-1.09
2023-02-05T20:01:39.213Z,-0.91
2023-02-05T20:04:10.219Z,-0.77
2023-02-05T20:06:38.888Z,-0.32
2023-02-05T20:09:10.585Z,-0.79
2023-02-05T20:11:41.741Z,-0.62
2023-02-05T20:14:13.225Z,-1.01
2023-02-05T20:16:42.449Z,-0.94
2023-02-05T20:19:12.846Z,-0.85
2023-02-05T20:21:41.585Z,-1.16
2023-02-05T20:24:10.097Z,-1.20
2023-02-05T20:26:40.548Z,-1.24
2023-02-05T20:29:26.876Z,-1.20
2023-02-05T20:31:57.713Z,-1.22
2023-02-05T20:34:30.619Z,-1.04
2023-02-05T20:37:00.734Z,-1.08
2023-02-05T20:39:30.342Z,-1.14
2023-02-05T20:42:00.814Z,-1.05
2023-02-05T20:44:31.214Z,-1.09
2023-02-05T20:46:59.840Z,-1.40
2023-02-05T20:49:28.393Z,-1.44
2023-02-05T20:51:57.169Z,-1.46
2023-02-05T20:54:25.859Z,-1.63
2023-02-05T20:56:57.122Z,-1.55
2023-02-05T20:59:27.116Z,-1.46
2023-02-05T21:01:56.584Z,-1.81
2023-02-05T21:04:25.717Z,-1.94
2023-02-05T21:06:54.665Z,-2.08
2023-02-05T21:09:23.687Z,-1.88
2023-02-05T21:11:55.745Z,-2.18
2023-02-05T21:14:24.577Z,-2.08
2023-02-05T21:16:54.907Z,-2.03
2023-02-05T21:19:24.126Z,-2.24
2023-02-05T21:21:53.086Z,-2.43
2023-02-05T21:24:21.926Z,-2.46
2023-02-05T21:26:51.022Z,-2.31
2023-02-05T21:29:21.082Z,-2.22
2023-02-05T21:31:53.094Z,-2.13
2023-02-05T21:34:25.294Z,-2.18
2023-02-05T21:36:55.138Z,-2.30
2023-02-05T21:39:25.645Z,-2.28
2023-02-05T21:41:54.807Z,-2.26
2023-02-05T21:44:23.363Z,-2.15
2023-02-05T21:46:53.379Z,-2.15
2023-02-05T21:49:23.086Z,-2.10
2023-02-05T21:51:53.419Z,-2.15
2023-02-05T21:54:25.454Z,-2.07
2023-02-05T21:56:55.094Z,-1.95
2023-02-05T21:59:23.311Z,-2.08
2023-02-05T22:01:52.272Z,-2.05
2023-02-05T22:04:20.560Z,-2.02
2023-02-05T22:06:51.744Z,-1.73
2023-02-05T22:09:20.931Z,-1.97
2023-02-05T22:11:50.641Z,-1.82
2023-02-05T22:14:18.832Z,-2.11
2023-02-05T22:16:47.451Z,-2.04
2023-02-05T22:19:15.767Z,-2.22
2023-02-05T22:21:44.735Z,-2.27
2023-02-05T22:24:16.380Z,-1.95
2023-02-05T22:26:45.946Z,-2.15
2023-02-05T22:29:15.734Z,-2.16
2023-02-05T22:31:45.468Z,-2.40
2023-02-05T22:34:14.205Z,-2.43
2023-02-05T22:36:43.694Z,-2.68
2023-02-05T22:39:12.248Z,-2.58
2023-02-05T22:41:43.064Z,-2.36
2023-02-05T22:44:12.562Z,-2.51
2023-02-05T22:46:42.634Z,-2.50
2023-02-05T22:49:12.638Z,-2.58
2023-02-05T22:51:41.686Z,-2.66
2023-02-05T22:54:13.297Z,-2.66
2023-02-05T22:56:43.119Z,-2.69
2023-02-05T22:59:11.674Z,-3.02
2023-02-05T23:01:40.349Z,-3.00
2023-02-05T23:04:12.292Z,-2.87
2023-02-05T23:06:42.835Z,-2.90
2023-02-05T23:09:12.712Z,-2.94
2023-02-05T23:11:46.113Z,-2.76
2023-02-05T23:14:15.720Z,-2.99
2023-02-05T23:16:46.829Z,-2.95
2023-02-05T23:19:19.178Z,-2.87
2023-02-05T23:21:48.800Z,-3.00
2023-02-05T23:24:17.827Z,-3.11
2023-02-05T23:26:50.968Z,-2.85
2023-02-05T23:29:19.374Z,-3.20
2023-02-05T23:31:48.321Z,-3.06
2023-02-05T23:34:16.489Z,-3.17
2023-02-05T23:36:44.957Z,-3.09
2023-02-05T23:39:13.384Z,-2.89
2023-02-05T23:41:41.838Z,-2.77
2023-02-05T23:44:14.276Z,-2.25
2023-02-05T23:46:43.762Z,-2.34
2023-02-05T23:49:12.642Z,-2.35
2023-02-05T23:51:42.185Z,-2.14
2023-02-05T23:54:12.367Z,-2.08
2023-02-05T23:56:41.242Z,-2.05
2023-02-05T23:59:14.190Z,-1.96
